Time;durP1;ratioP1;P1;durP2;ratioP2;P2;SDS_P1;SDS_P2;PMS_P1;PMS_P2;Temp;Humidity;BMP_temperature;BMP_pressure;BME280_temperature;BME280_humidity;BME280_pressure;Samples;Min_cycle;Max_cycle;Signal;HPM_P1;HPM_P2
2023/09/02 00:02:06;;;;;;;7.60;2.70;;;19.20;99.90;;;;;;7278713;19;20270;-76
2023/09/02 00:04:32;;;;;;;9.10;3.13;;;19.10;99.90;;;;;;7276892;19;20196;-76
2023/09/02 00:07:02;;;;;;;8.27;2.90;;;19.10;99.90;;;;;;7276283;19;20218;-77
2023/09/02 00:09:28;;;;;;;7.77;3.30;;;19.10;99.90;;;;;;7277131;19;20198;-76
2023/09/02 00:11:53;;;;;;;7.27;2.90;;;19.10;99.90;;;;;;7278064;19;20185;-75
2023/09/02 00:14:19;;;;;;;7.90;3.40;;;19.00;99.90;;;;;;7277761;19;20202;-77
2023/09/02 00:16:45;;;;;;;7.40;3.03;;;19.10;99.90;;;;;;7299740;19;20771;-76
2023/09/02 00:19:10;;;;;;;8.27;3.07;;;19.10;99.90;;;;;;7276939;19;20218;-76
2023/09/02 00:21:36;;;;;;;7.80;3.23;;;19.10;99.90;;;;;;7276835;19;21074;-76
2023/09/02 00:24:04;;;;;;;10.30;3.07;;;19.00;99.90;;;;;;7279502;19;20188;-76
2023/09/02 00:26:31;;;;;;;5.23;2.70;;;19.00;99.90;;;;;;7283650;19;20185;-77
2023/09/02 00:28:57;;;;;;;7.97;3.10;;;18.90;99.90;;;;;;7284262;19;20213;-76
2023/09/02 00:31:23;;;;;;;6.80;2.93;;;18.90;99.90;;;;;;7283963;19;20633;-75
2023/09/02 00:33:49;;;;;;;9.30;3.67;;;18.80;99.90;;;;;;7282915;19;20252;-76
2023/09/02 00:36:18;;;;;;;6.60;3.70;;;18.80;99.90;;;;;;7292195;19;20691;-75
2023/09/02 00:38:44;;;;;;;10.83;3.53;;;18.90;99.90;;;;;;7303946;19;20184;-76
2023/09/02 00:41:31;;;;;;;11.30;3.70;;;18.90;99.90;;;;;;7283347;19;20663;-76
2023/09/02 00:43:59;;;;;;;8.87;3.60;;;18.90;99.90;;;;;;7181419;19;2004867;-76
2023/09/02 00:46:25;;;;;;;9.77;3.60;;;18.90;99.90;;;;;;7285060;19;20620;-76
2023/09/02 00:48:51;;;;;;;8.63;3.90;;;18.80;99.90;;;;;;7282807;19;20205;-75
2023/09/02 00:51:16;;;;;;;9.50;3.80;;;18.70;99.90;;;;;;7304435;19;20687;-77
2023/09/02 00:53:44;;;;;;;9.00;3.87;;;18.70;99.90;;;;;;7284324;19;20185;-76
2023/09/02 00:56:15;;;;;;;7.43;3.40;;;18.70;99.90;;;;;;7281685;19;20173;-76
2023/09/02 00:58:41;;;;;;;9.07;3.40;;;18.70;99.90;;;;;;7282207;19;20185;-75
2023/09/02 01:01:08;;;;;;;7.17;3.70;;;18.70;99.90;;;;;;7282437;19;20186;-76
2023/09/02 01:03:37;;;;;;;8.20;3.80;;;18.70;99.90;;;;;;7282363;19;20682;-76
2023/09/02 01:06:04;;;;;;;9.23;3.90;;;18.80;99.90;;;;;;7283546;19;20192;-76
2023/09/02 01:08:30;;;;;;;7.70;3.90;;;18.80;99.90;;;;;;7281927;19;20203;-76
2023/09/02 01:10:59;;;;;;;7.27;3.37;;;18.80;99.90;;;;;;7281088;19;20281;-75
2023/09/02 01:13:25;;;;;;;10.20;3.80;;;18.80;99.90;;;;;;7283517;19;20199;-76
2023/09/02 01:15:53;;;;;;;10.67;3.73;;;18.70;99.90;;;;;;7282144;19;20192;-75
2023/09/02 01:18:20;;;;;;;10.70;3.90;;;18.70;99.90;;;;;;7282314;19;20213;-75
2023/09/02 01:20:48;;;;;;;13.90;4.10;;;18.60;99.90;;;;;;7304692;19;20207;-76
2023/09/02 01:23:23;;;;;;;14.40;4.00;;;18.70;99.90;;;;;;7283596;19;20187;-76
2023/09/02 01:26:07;;;;;;;9.43;4.23;;;18.80;99.90;;;;;;7260940;19;20284;-76
2023/09/02 01:28:40;;;;;;;9.07;4.30;;;18.70;99.90;;;;;;7282427;19;20197;-76
2023/09/02 01:31:10;;;;;;;9.60;3.97;;;18.60;99.90;;;;;;7282707;19;20185;-76
2023/09/02 01:33:37;;;;;;;9.30;4.50;;;18.60;99.90;;;;;;7283611;19;22108;-76
2023/09/02 01:36:04;;;;;;;11.43;3.70;;;18.60;99.90;;;;;;7278708;19;20199;-76
2023/09/02 01:38:32;;;;;;;6.13;3.50;;;18.60;99.90;;;;;;7281423;19;20189;-76
2023/09/02 01:41:02;;;;;;;8.50;3.47;;;18.60;99.90;;;;;;7281493;19;20561;-76
2023/09/02 01:43:30;;;;;;;9.30;3.60;;;18.60;99.90;;;;;;7281996;19;20185;-76
2023/09/02 01:45:57;;;;;;;10.03;4.00;;;18.60;99.90;;;;;;7281866;19;21101;-76
2023/09/02 01:48:26;;;;;;;11.43;4.17;;;18.60;99.90;;;;;;7280576;19;20187;-76
2023/09/02 01:50:52;;;;;;;11.83;3.80;;;18.60;99.90;;;;;;7280939;19;20196;-76
2023/09/02 01:53:18;;;;;;;8.30;4.00;;;18.50;99.90;;;;;;7288087;19;20185;-76
2023/09/02 01:55:45;;;;;;;7.97;4.00;;;18.50;99.90;;;;;;7301176;19;20214;-76
2023/09/02 01:58:11;;;;;;;9.73;4.20;;;18.60;99.90;;;;;;7280695;19;20236;-76
2023/09/02 02:00:40;;;;;;;8.40;3.70;;;18.60;99.90;;;;;;7282768;19;20641;-76
2023/09/02 02:03:19;;;;;;;7.63;3.77;;;18.50;99.90;;;;;;7279726;19;20197;-75
2023/09/02 02:05:52;;;;;;;9.30;4.10;;;18.40;99.90;;;;;;7279887;19;20193;-75
2023/09/02 02:08:52;;;;;;;6.83;3.53;;;18.30;99.90;;;;;;7271125;19;20203;-75
2023/09/02 02:11:21;;;;;;;9.70;3.77;;;18.10;99.90;;;;;;7267200;19;20667;-78
2023/09/02 02:13:49;;;;;;;7.63;3.47;;;18.10;99.90;;;;;;7305227;19;20185;-77
2023/09/02 02:16:17;;;;;;;9.43;3.40;;;18.20;99.90;;;;;;7280089;19;20183;-76
2023/09/02 02:18:43;;;;;;;8.20;3.00;;;18.20;99.90;;;;;;7291382;19;20272;-77
2023/09/02 02:21:09;;;;;;;6.57;2.60;;;18.10;99.90;;;;;;7280657;19;20190;-77
2023/09/02 02:23:35;;;;;;;6.60;2.97;;;18.10;99.90;;;;;;7280986;19;20249;-76
2023/09/02 02:26:02;;;;;;;9.70;2.80;;;18.00;99.90;;;;;;7280566;19;20192;-76
2023/09/02 02:28:28;;;;;;;6.30;2.97;;;18.00;99.90;;;;;;7281774;19;20191;-76
2023/09/02 02:30:55;;;;;;;5.63;3.10;;;18.00;99.90;;;;;;7281595;19;21646;-76
2023/09/02 02:33:21;;;;;;;7.33;2.90;;;18.00;99.90;;;;;;7279374;19;20281;-76
2023/09/02 02:35:47;;;;;;;9.43;3.70;;;18.00;99.90;;;;;;7296225;19;20644;-75
2023/09/02 02:38:13;;;;;;;5.93;3.23;;;18.10;99.90;;;;;;7291982;19;20189;-74
2023/09/02 02:40:39;;;;;;;7.83;3.80;;;18.10;99.90;;;;;;7278631;19;20667;-76
2023/09/02 02:43:05;;;;;;;11.07;3.97;;;18.20;99.90;;;;;;7278963;19;20529;-75
2023/09/02 02:45:31;;;;;;;8.33;3.87;;;18.20;99.90;;;;;;7281191;19;20185;-77
2023/09/02 02:47:57;;;;;;;11.00;3.90;;;18.20;99.90;;;;;;7278326;19;20619;-75
2023/09/02 02:50:23;;;;;;;13.27;3.93;;;18.20;99.90;;;;;;7280337;19;21090;-76
2023/09/02 02:52:52;;;;;;;11.17;3.83;;;18.20;99.90;;;;;;7280639;19;20187;-75
2023/09/02 02:55:18;;;;;;;8.87;3.90;;;18.20;99.90;;;;;;7287233;19;20181;-75
2023/09/02 02:57:45;;;;;;;6.90;3.80;;;18.20;99.90;;;;;;7301384;19;20177;-76
2023/09/02 03:00:12;;;;;;;12.40;3.90;;;18.20;99.90;;;;;;7278301;19;20181;-76
2023/09/02 03:02:38;;;;;;;8.43;4.00;;;18.20;99.90;;;;;;7279687;19;20178;-76
2023/09/02 03:05:04;;;;;;;8.97;3.70;;;18.20;99.90;;;;;;7278060;19;20205;-76
2023/09/02 03:07:30;;;;;;;11.00;3.70;;;18.30;99.90;;;;;;7278613;19;20194;-75
2023/09/02 03:09:56;;;;;;;12.73;3.53;;;18.40;99.90;;;;;;7278716;19;20652;-77
2023/09/02 03:12:22;;;;;;;6.83;3.43;;;18.40;99.90;;;;;;7276527;19;20668;-75
2023/09/02 03:14:49;;;;;;;6.10;3.53;;;18.40;99.90;;;;;;7286432;19;20189;-75
2023/09/02 03:17:20;;;;;;;10.63;3.40;;;18.40;99.90;;;;;;7299109;19;20203;-76
2023/09/02 03:19:48;;;;;;;10.20;3.43;;;18.30;99.90;;;;;;7278371;19;20209;-77
2023/09/02 03:22:15;;;;;;;9.70;3.63;;;18.30;99.90;;;;;;7301675;19;20309;-76
2023/09/02 03:24:43;;;;;;;11.70;3.90;;;18.40;99.90;;;;;;7278410;19;20197;-76
2023/09/02 03:27:09;;;;;;;10.33;3.63;;;18.40;99.90;;;;;;7278085;19;20185;-76
2023/09/02 03:29:35;;;;;;;9.43;3.77;;;18.40;99.90;;;;;;7279276;19;20189;-76
2023/09/02 03:32:02;;;;;;;8.57;3.40;;;18.40;99.90;;;;;;7279370;19;20228;-76
2023/09/02 03:34:28;;;;;;;12.67;4.00;;;18.40;99.90;;;;;;7277934;19;20183;-76
2023/09/02 03:36:54;;;;;;;6.97;3.13;;;18.40;99.90;;;;;;7276835;19;20191;-75
2023/09/02 03:39:19;;;;;;;7.13;3.30;;;18.40;99.90;;;;;;7277476;19;20210;-76
2023/09/02 03:41:46;;;;;;;9.07;3.53;;;18.30;99.90;;;;;;7299810;19;20200;-75
2023/09/02 03:44:11;;;;;;;7.97;3.33;;;18.20;99.90;;;;;;7279548;19;20860;-76
2023/09/02 03:46:37;;;;;;;7.83;3.67;;;18.20;99.90;;;;;;7278168;19;20611;-76
2023/09/02 03:49:03;;;;;;;11.00;3.80;;;18.10;99.90;;;;;;7278773;19;20191;-76
2023/09/02 03:51:29;;;;;;;8.80;3.60;;;18.00;99.90;;;;;;7278925;19;20181;-75
2023/09/02 03:53:58;;;;;;;7.50;3.40;;;17.90;99.90;;;;;;7278096;19;20608;-75
2023/09/02 03:56:25;;;;;;;6.80;3.40;;;17.90;99.90;;;;;;7277178;19;20229;-75
2023/09/02 03:58:50;;;;;;;10.17;3.53;;;17.90;99.90;;;;;;7280270;19;20211;-75
2023/09/02 04:01:17;;;;;;;6.83;3.57;;;18.00;99.90;;;;;;7305393;19;20191;-76
2023/09/02 04:03:44;;;;;;;8.67;3.80;;;18.10;99.90;;;;;;7282305;19;20196;-75
2023/09/02 04:06:12;;;;;;;6.10;3.40;;;18.20;99.90;;;;;;7285545;19;20187;-75
2023/09/02 04:08:38;;;;;;;9.53;3.43;;;18.30;99.90;;;;;;7283661;19;20182;-77
2023/09/02 04:11:04;;;;;;;12.47;4.10;;;18.30;99.90;;;;;;7284536;19;20607;-76
2023/09/02 04:13:30;;;;;;;8.57;3.73;;;18.30;99.90;;;;;;7284067;19;20189;-76
2023/09/02 04:16:03;;;;;;;13.23;4.60;;;18.20;99.90;;;;;;7283422;19;20193;-75
2023/09/02 04:18:31;;;;;;;10.23;3.93;;;18.10;99.90;;;;;;7283794;19;20189;-76
2023/09/02 04:21:02;;;;;;;10.77;3.93;;;18.00;99.90;;;;;;7283038;19;20191;-75
2023/09/02 04:23:28;;;;;;;10.00;4.30;;;17.80;99.90;;;;;;7284351;19;20256;-76
2023/09/02 04:25:57;;;;;;;10.23;4.10;;;17.70;99.90;;;;;;7283897;19;20215;-77
2023/09/02 04:28:23;;;;;;;8.17;3.87;;;17.70;99.90;;;;;;7284177;19;20185;-75
2023/09/02 04:30:53;;;;;;;12.70;4.30;;;17.70;99.90;;;;;;7282626;19;20740;-75
2023/09/02 04:33:22;;;;;;;13.40;3.80;;;17.80;99.90;;;;;;7282486;19;20229;-75
2023/09/02 04:35:48;;;;;;;9.27;3.67;;;17.80;99.90;;;;;;7293313;19;20181;-76
2023/09/02 04:38:15;;;;;;;9.33;3.53;;;17.80;99.90;;;;;;7304670;19;20193;-76
2023/09/02 04:40:44;;;;;;;10.13;3.40;;;17.80;99.90;;;;;;7283027;19;20213;-77
2023/09/02 04:43:12;;;;;;;12.57;3.80;;;17.80;99.90;;;;;;7283791;19;20206;-77
2023/09/02 04:45:40;;;;;;;8.63;3.70;;;17.80;99.90;;;;;;7283049;19;20201;-76
2023/09/02 04:48:09;;;;;;;10.10;3.20;;;17.80;99.90;;;;;;7284074;19;20198;-76
2023/09/02 04:50:36;;;;;;;8.03;3.13;;;17.80;99.90;;;;;;7283837;19;20193;-77
2023/09/02 04:53:04;;;;;;;8.17;3.23;;;17.70;99.90;;;;;;7283770;19;20195;-77
2023/09/02 04:55:36;;;;;;;6.47;2.70;;;17.70;99.90;;;;;;7281305;19;20203;-76
2023/09/02 04:58:02;;;;;;;5.97;2.70;;;17.70;99.90;;;;;;7282826;19;20212;-75
2023/09/02 05:00:29;;;;;;;10.67;2.73;;;17.50;99.90;;;;;;7284103;19;20185;-77
2023/09/02 05:02:55;;;;;;;8.13;3.13;;;17.50;99.90;;;;;;7283361;19;20732;-76
2023/09/02 05:05:23;;;;;;;8.47;4.17;;;17.50;99.90;;;;;;7283271;19;20881;-76
2023/09/02 05:07:50;;;;;;;11.23;3.83;;;17.70;99.90;;;;;;7286940;19;20633;-76
2023/09/02 05:10:16;;;;;;;10.43;3.30;;;17.80;99.90;;;;;;7303731;19;20552;-77
2023/09/02 05:12:42;;;;;;;8.87;3.63;;;17.80;99.90;;;;;;7283958;19;20197;-76
2023/09/02 05:15:09;;;;;;;11.43;4.03;;;17.80;99.90;;;;;;7280538;19;20273;-76
2023/09/02 05:17:37;;;;;;;12.17;4.33;;;18.00;99.90;;;;;;7282247;19;20185;-77
2023/09/02 05:20:04;;;;;;;12.10;4.33;;;18.10;99.90;;;;;;7284000;19;20222;-76
2023/09/02 05:22:30;;;;;;;11.17;4.50;;;18.20;99.90;;;;;;7282859;19;20214;-76
2023/09/02 05:24:56;;;;;;;12.83;4.10;;;18.20;99.90;;;;;;7282246;19;20259;-75
2023/09/02 05:27:22;;;;;;;10.53;4.50;;;18.20;99.90;;;;;;7281906;19;20272;-75
2023/09/02 05:29:48;;;;;;;9.47;4.50;;;18.10;99.90;;;;;;7300408;19;20212;-76
2023/09/02 05:32:15;;;;;;;9.47;4.23;;;18.10;99.90;;;;;;7299021;19;20199;-76
2023/09/02 05:34:41;;;;;;;8.63;4.33;;;18.20;99.90;;;;;;7282350;19;20193;-76
2023/09/02 05:37:06;;;;;;;13.00;4.33;;;18.10;99.90;;;;;;7283547;19;20194;-77
2023/09/02 05:39:32;;;;;;;9.97;4.20;;;18.00;99.90;;;;;;7284388;19;20193;-76
2023/09/02 05:41:58;;;;;;;9.70;4.30;;;18.00;99.90;;;;;;7281532;19;20699;-76
2023/09/02 05:44:24;;;;;;;12.03;4.00;;;18.00;99.90;;;;;;7280912;19;20252;-74
2023/09/02 05:46:50;;;;;;;8.07;3.80;;;18.10;99.90;;;;;;7282842;19;20196;-76
2023/09/02 05:49:16;;;;;;;7.77;3.83;;;18.20;99.90;;;;;;7305757;19;20202;-76
2023/09/02 05:51:42;;;;;;;7.50;3.40;;;18.30;99.90;;;;;;7282707;19;20203;-76
2023/09/02 05:54:09;;;;;;;11.37;3.50;;;18.40;99.90;;;;;;7281882;19;20201;-75
2023/09/02 05:56:38;;;;;;;9.57;4.20;;;18.60;99.90;;;;;;7282050;19;20654;-76
2023/09/02 05:59:04;;;;;;;10.10;3.57;;;18.80;99.90;;;;;;7281967;19;20655;-76
2023/09/02 06:01:31;;;;;;;7.17;3.50;;;18.90;99.90;;;;;;7281755;19;20218;-76
2023/09/02 06:03:56;;;;;;;6.40;3.40;;;19.10;99.90;;;;;;7277218;19;20196;-77
2023/09/02 06:06:22;;;;;;;15.17;3.63;;;19.30;99.90;;;;;;7279985;19;20211;-76
2023/09/02 06:08:49;;;;;;;10.40;3.37;;;19.40;99.90;;;;;;7295165;19;20184;-75
2023/09/02 06:11:15;;;;;;;11.83;3.30;;;19.60;99.90;;;;;;7300797;19;20188;-78
2023/09/02 06:13:41;;;;;;;8.07;3.10;;;19.80;99.90;;;;;;7281656;19;20174;-77
2023/09/02 06:16:07;;;;;;;12.07;3.00;;;20.10;99.90;;;;;;7280645;19;20562;-76
2023/09/02 06:18:35;;;;;;;13.97;2.97;;;20.30;99.90;;;;;;7282176;19;20837;-77
2023/09/02 06:21:12;;;;;;;10.83;2.80;;;20.40;99.90;;;;;;7281168;19;20182;-77
2023/09/02 06:23:40;;;;;;;5.90;2.63;;;20.60;99.90;;;;;;7279870;19;20185;-76
2023/09/02 06:26:05;;;;;;;8.23;2.60;;;20.90;99.90;;;;;;7281314;19;20196;-77
2023/09/02 06:28:32;;;;;;;7.13;2.50;;;21.20;99.90;;;;;;7280813;19;20178;-76
2023/09/02 06:30:57;;;;;;;6.67;2.77;;;21.40;99.90;;;;;;7281058;19;20280;-76
2023/09/02 06:33:24;;;;;;;8.63;2.43;;;21.70;99.90;;;;;;7280767;19;20182;-76
2023/09/02 06:35:50;;;;;;;8.73;2.33;;;22.00;99.90;;;;;;7278572;19;20234;-76
2023/09/02 06:38:17;;;;;;;5.33;2.10;;;22.20;99.90;;;;;;7303127;19;20205;-76
2023/09/02 06:40:42;;;;;;;7.93;2.83;;;22.30;99.90;;;;;;7279818;19;20183;-77
2023/09/02 06:43:08;;;;;;;5.73;2.57;;;22.40;99.90;;;;;;7280011;19;20194;-76
2023/09/02 06:45:34;;;;;;;6.83;2.30;;;22.50;99.90;;;;;;7280153;19;20539;-77
2023/09/02 06:48:00;;;;;;;8.43;2.30;;;22.60;99.90;;;;;;7281059;19;20193;-76
2023/09/02 06:50:28;;;;;;;7.90;2.30;;;22.80;99.90;;;;;;7278420;19;20562;-77
2023/09/02 06:52:54;;;;;;;9.50;2.50;;;23.40;99.90;;;;;;7280544;19;20675;-77
2023/09/02 06:55:21;;;;;;;7.33;2.30;;;24.10;99.90;;;;;;7284026;19;20188;-76
2023/09/02 06:57:47;;;;;;;4.70;2.10;;;24.80;99.90;;;;;;7300286;19;20526;-76
2023/09/02 07:00:13;;;;;;;6.00;2.30;;;25.20;99.90;;;;;;7278611;19;20193;-76
2023/09/02 07:02:40;;;;;;;6.47;2.23;;;25.20;99.90;;;;;;7280394;19;20188;-77
2023/09/02 07:05:06;;;;;;;6.40;2.30;;;25.20;99.90;;;;;;7279059;19;20188;-76
2023/09/02 07:07:32;;;;;;;5.33;1.90;;;25.40;99.90;;;;;;7278895;19;20189;-76
2023/09/02 07:09:58;;;;;;;6.73;2.10;;;25.20;99.90;;;;;;7279979;19;20189;-77
2023/09/02 07:12:24;;;;;;;7.40;2.40;;;24.60;99.90;;;;;;7278419;19;20189;-76
2023/09/02 07:14:50;;;;;;;7.57;2.23;;;23.80;99.90;;;;;;7278304;19;20189;-75
2023/09/02 07:17:16;;;;;;;9.20;2.30;;;23.30;99.90;;;;;;7300762;19;20213;-76
2023/09/02 07:19:42;;;;;;;6.80;2.80;;;23.30;99.90;;;;;;7279773;19;20209;-76
2023/09/02 07:22:09;;;;;;;9.43;2.70;;;23.50;99.90;;;;;;7278722;19;20653;-77
2023/09/02 07:24:37;;;;;;;8.40;3.10;;;23.80;99.90;;;;;;7278596;19;20185;-76
2023/09/02 07:27:02;;;;;;;11.40;2.30;;;24.50;99.90;;;;;;7278077;19;20188;-76
2023/09/02 07:29:28;;;;;;;8.83;2.37;;;25.70;99.90;;;;;;7279703;19;20195;-77
2023/09/02 07:31:55;;;;;;;7.80;2.33;;;26.90;99.90;;;;;;7279120;19;20188;-77
2023/09/02 07:34:21;;;;;;;9.48;2.05;;;28.40;99.90;;;;;;7284271;19;20217;-78
2023/09/02 07:36:47;;;;;;;6.38;2.22;;;29.80;99.90;;;;;;7316011;19;20193;-78
2023/09/02 07:39:16;;;;;;;6.43;2.20;;;29.60;99.90;;;;;;7293147;19;20187;-78
2023/09/02 07:41:41;;;;;;;8.40;2.08;;;29.30;99.90;;;;;;7293539;19;20188;-77
2023/09/02 07:44:09;;;;;;;8.73;2.50;;;29.10;99.90;;;;;;7293187;19;20192;-77
2023/09/02 07:46:34;;;;;;;7.55;2.05;;;29.00;99.90;;;;;;7293969;19;20843;-79
2023/09/02 07:49:00;;;;;;;5.88;1.80;;;28.90;99.90;;;;;;7291958;19;20192;-77
2023/09/02 07:51:26;;;;;;;5.88;2.30;;;28.70;99.90;;;;;;7292882;19;20192;-77
2023/09/02 07:53:51;;;;;;;7.93;2.20;;;28.40;99.90;;;;;;7291899;19;20667;-78
2023/09/02 07:56:17;;;;;;;7.30;1.80;;;28.00;99.90;;;;;;7315523;19;20200;-77
2023/09/02 07:58:46;;;;;;;8.40;2.03;;;27.60;99.90;;;;;;7292972;19;20188;-78
2023/09/02 08:01:12;;;;;;;7.78;2.10;;;27.30;99.90;;;;;;7291924;19;20674;-77
2023/09/02 08:03:38;;;;;;;5.95;1.95;;;27.10;99.90;;;;;;7292265;19;20205;-77
2023/09/02 08:06:06;;;;;;;8.43;2.08;;;26.70;99.90;;;;;;7293014;19;20196;-78
2023/09/02 08:08:32;;;;;;;6.20;2.40;;;26.40;99.90;;;;;;7292702;19;20197;-77
2023/09/02 08:11:05;;;;;;;6.80;1.90;;;26.30;99.90;;;;;;7293005;19;20380;-77
2023/09/02 08:13:31;;;;;;;6.05;1.63;;;26.50;99.90;;;;;;7292444;19;20547;-77
2023/09/02 08:15:58;;;;;;;7.40;1.55;;;26.60;99.90;;;;;;7293622;19;20523;-78
2023/09/02 08:18:24;;;;;;;8.88;1.88;;;26.60;99.90;;;;;;7291744;19;20185;-76
2023/09/02 08:20:50;;;;;;;5.93;2.05;;;27.50;99.90;;;;;;7294062;19;20177;-77
2023/09/02 08:23:16;;;;;;;4.65;1.48;;;28.80;99.90;;;;;;7314156;19;20188;-77
2023/09/02 08:25:41;;;;;;;5.47;1.45;;;30.40;99.90;;;;;;7294663;19;20237;-77
2023/09/02 08:28:07;;;;;;;4.00;1.40;;;32.00;99.90;;;;;;7292021;19;20192;-78
2023/09/02 08:30:33;;;;;;;3.33;1.30;;;34.00;99.90;;;;;;7291057;19;20196;-78
2023/09/02 08:32:59;;;;;;;4.25;1.10;;;35.10;99.90;;;;;;7293121;19;20193;-78
2023/09/02 08:35:24;;;;;;;4.63;1.10;;;35.40;99.90;;;;;;7291809;19;20281;-78
2023/09/02 08:37:53;;;;;;;2.85;1.00;;;35.20;99.10;;;;;;7293817;19;20639;-76
2023/09/02 08:40:18;;;;;;;6.32;1.20;;;35.20;99.80;;;;;;7310540;19;20185;-78
2023/09/02 08:42:44;;;;;;;2.72;1.10;;;36.10;97.00;;;;;;7302754;19;20237;-78
2023/09/02 08:45:13;;;;;;;4.13;1.10;;;37.60;94.30;;;;;;7287295;19;20188;-78
2023/09/02 08:47:40;;;;;;;7.93;1.30;;;38.60;91.50;;;;;;7285111;19;20961;-79
2023/09/02 08:50:09;;;;;;;6.00;1.20;;;39.50;85.90;;;;;;7282541;19;20189;-78
2023/09/02 08:52:35;;;;;;;2.95;1.10;;;39.60;83.80;;;;;;7284662;19;20180;-78
2023/09/02 08:55:02;;;;;;;5.18;1.27;;;39.70;82.90;;;;;;7284036;19;20188;-78
2023/09/02 08:57:30;;;;;;;4.95;1.10;;;40.30;80.40;;;;;;7284321;19;20184;-79
2023/09/02 08:59:56;;;;;;;3.17;1.10;;;40.30;78.00;;;;;;7283717;19;20181;-78
2023/09/02 09:02:22;;;;;;;4.18;1.20;;;40.40;75.20;;;;;;7284568;19;20967;-78
2023/09/02 09:04:49;;;;;;;2.95;1.00;;;40.90;73.20;;;;;;7305090;19;20188;-78
2023/09/02 09:07:17;;;;;;;4.10;1.42;;;39.40;74.30;;;;;;7284622;19;20237;-77
2023/09/02 09:09:45;;;;;;;3.65;1.20;;;38.10;78.00;;;;;;7282625;19;20185;-77
2023/09/02 09:12:13;;;;;;;2.70;1.20;;;36.80;79.90;;;;;;7283258;19;20196;-78
2023/09/02 09:14:45;;;;;;;3.45;1.10;;;35.80;84.80;;;;;;7285213;19;20995;-78
2023/09/02 09:17:13;;;;;;;3.65;1.30;;;35.60;89.10;;;;;;7283356;19;20197;-78
2023/09/02 09:19:39;;;;;;;4.82;0.90;;;36.00;88.90;;;;;;7282297;19;20218;-78
2023/09/02 09:22:05;;;;;;;3.15;1.20;;;36.80;87.10;;;;;;7283419;19;20185;-77
2023/09/02 09:24:31;;;;;;;2.45;0.90;;;37.90;81.30;;;;;;7284439;19;20188;-78
2023/09/02 09:27:00;;;;;;;2.70;1.05;;;38.80;78.50;;;;;;7284534;19;20185;-78
2023/09/02 09:29:26;;;;;;;3.60;1.00;;;38.40;78.90;;;;;;7283359;19;20181;-78
2023/09/02 09:32:10;;;;;;;3.88;1.00;;;37.00;81.20;;;;;;7283796;19;20282;-78
2023/09/02 09:34:41;;;;;;;5.68;1.10;;;36.30;82.00;;;;;;7282120;19;20210;-77
2023/09/02 09:37:08;;;;;;;3.20;1.00;;;37.30;82.00;;;;;;7283275;19;20195;-77
2023/09/02 09:39:43;;;;;;;3.92;1.15;;;38.10;80.80;;;;;;7281369;19;20209;-77
2023/09/02 09:42:14;;;;;;;2.80;0.90;;;38.30;80.20;;;;;;7282229;19;20214;-77
2023/09/02 09:45:00;;;;;;;5.07;1.00;;;38.30;77.50;;;;;;7279493;19;20293;-77
2023/09/02 09:47:26;;;;;;;1.88;0.85;;;38.70;74.50;;;;;;7180198;19;2004564;-77
2023/09/02 09:49:54;;;;;;;2.47;0.90;;;37.20;77.90;;;;;;7282497;19;20326;-78
2023/09/02 09:52:21;;;;;;;2.47;1.10;;;37.90;79.60;;;;;;7292136;19;20181;-76
2023/09/02 09:54:52;;;;;;;3.63;0.90;;;39.50;75.60;;;;;;7302010;19;20189;-77
2023/09/02 09:57:30;;;;;;;2.97;1.15;;;39.80;71.90;;;;;;7279649;19;20739;-78
2023/09/02 09:59:57;;;;;;;5.35;1.95;;;40.60;70.40;;;;;;7177010;19;2004570;-77
2023/09/02 10:02:23;;;;;;;2.75;0.93;;;39.30;72.40;;;;;;7281055;19;20210;-78
2023/09/02 10:04:50;;;;;;;3.75;1.00;;;39.10;69.20;;;;;;7300592;19;20192;-78
2023/09/02 10:07:22;;;;;;;4.18;0.80;;;37.80;69.30;;;;;;7304129;19;20199;-77
2023/09/02 10:09:48;;;;;;;3.40;1.02;;;36.40;72.40;;;;;;7282473;19;20177;-77
2023/09/02 10:12:15;;;;;;;4.13;1.08;;;35.20;76.10;;;;;;7282039;19;20193;-77
2023/09/02 10:14:43;;;;;;;2.35;0.95;;;35.00;80.60;;;;;;7280083;19;20184;-77
2023/09/02 10:17:10;;;;;;;2.80;1.00;;;36.30;79.60;;;;;;7280750;19;20511;-77
2023/09/02 10:19:38;;;;;;;2.92;0.90;;;38.40;77.50;;;;;;7277916;19;20637;-77
2023/09/02 10:22:04;;;;;;;2.75;0.80;;;39.60;70.90;;;;;;7280238;19;20755;-78
2023/09/02 10:24:44;;;;;;;2.88;1.02;;;41.00;68.10;;;;;;7280654;19;20664;-77
2023/09/02 10:27:23;;;;;;;2.55;0.80;;;40.40;66.10;;;;;;7281158;19;20674;-77
2023/09/02 10:29:57;;;;;;;3.67;0.90;;;39.20;68.00;;;;;;7280550;19;20189;-77
2023/09/02 10:32:28;;;;;;;4.15;1.10;;;38.00;70.60;;;;;;7280707;19;20263;-75
2023/09/02 10:35:18;;;;;;;3.45;0.98;;;38.30;72.00;;;;;;7278011;19;20193;-76
2023/09/02 10:37:48;;;;;;;3.83;0.80;;;37.30;73.70;;;;;;7281318;19;20194;-77
2023/09/02 10:40:33;;;;;;;2.30;0.90;;;36.70;70.80;;;;;;7267906;19;20222;-77
2023/09/02 10:43:02;;;;;;;2.30;1.00;;;37.30;72.80;;;;;;7171959;19;2004881;-81
2023/09/02 10:45:29;;;;;;;2.22;0.80;;;38.30;71.70;;;;;;7273049;19;20272;-78
2023/09/02 10:47:55;;;;;;;2.67;0.70;;;38.30;69.60;;;;;;7275355;19;20300;-77
2023/09/02 10:50:21;;;;;;;4.25;0.88;;;37.70;73.50;;;;;;7277072;19;20553;-77
2023/09/02 10:52:51;;;;;;;2.40;0.82;;;37.50;73.30;;;;;;7295362;19;20200;-76
2023/09/02 10:55:17;;;;;;;5.13;1.00;;;36.90;73.00;;;;;;7271795;19;20185;-78
2023/09/02 10:57:57;;;;;;;3.60;1.10;;;36.20;79.70;;;;;;7271736;19;20192;-78
2023/09/02 11:00:28;;;;;;;2.95;1.00;;;37.60;76.60;;;;;;7251321;19;20192;-78
2023/09/02 11:02:56;;;;;;;4.35;0.90;;;37.90;72.00;;;;;;7272411;19;20628;-78
2023/09/02 11:05:24;;;;;;;2.08;0.80;;;37.60;72.10;;;;;;7272928;19;20200;-77
2023/09/02 11:07:50;;;;;;;4.00;0.93;;;37.80;71.50;;;;;;7282666;19;20724;-78
2023/09/02 11:10:17;;;;;;;2.92;0.75;;;39.20;69.30;;;;;;7292847;19;20268;-78
2023/09/02 11:13:09;;;;;;;1.73;0.75;;;38.50;67.90;;;;;;7274471;19;20189;-77
2023/09/02 11:15:36;;;;;;;3.38;0.85;;;37.10;71.40;;;;;;7168507;19;2004619;-78
2023/09/02 11:18:32;;;;;;;3.47;0.85;;;36.90;72.80;;;;;;7273189;19;20189;-77
2023/09/02 11:20:58;;;;;;;3.50;0.93;;;37.60;73.90;;;;;;7171066;19;2004868;-77
2023/09/02 11:23:24;;;;;;;3.95;0.90;;;39.10;72.50;;;;;;7272820;19;20185;-77
2023/09/02 11:26:00;;;;;;;2.47;0.80;;;39.60;69.40;;;;;;7285559;19;20711;-77
2023/09/02 11:28:27;;;;;;;3.42;0.80;;;38.90;68.50;;;;;;7276520;19;20196;-77
2023/09/02 11:31:16;;;;;;;1.60;0.63;;;39.80;71.60;;;;;;7271785;19;20252;-78
2023/09/02 11:33:47;;;;;;;4.90;0.77;;;39.90;68.10;;;;;;7277714;19;20181;-78
2023/09/02 11:36:17;;;;;;;1.83;0.60;;;40.90;67.30;;;;;;7280159;19;20193;-78
2023/09/02 11:38:43;;;;;;;1.92;0.63;;;41.20;64.60;;;;;;7276001;19;20183;-77
2023/09/02 11:41:20;;;;;;;1.45;0.60;;;41.20;64.50;;;;;;7279778;19;20206;-78
2023/09/02 11:43:45;;;;;;;3.10;0.65;;;41.80;62.80;;;;;;7275023;19;20184;-77
2023/09/02 11:46:12;;;;;;;3.00;0.70;;;41.80;64.60;;;;;;7278143;19;20681;-77
2023/09/02 11:48:38;;;;;;;2.17;0.65;;;41.70;64.00;;;;;;7276619;19;20268;-77
2023/09/02 11:51:04;;;;;;;2.47;0.70;;;41.40;64.50;;;;;;7276528;19;21031;-78
2023/09/02 11:53:31;;;;;;;1.83;0.60;;;40.20;63.80;;;;;;7275124;19;20193;-77
2023/09/02 11:55:57;;;;;;;2.22;0.70;;;38.90;66.00;;;;;;7277559;19;20184;-77
2023/09/02 11:58:24;;;;;;;4.00;0.60;;;39.60;68.60;;;;;;7276899;19;20203;-78
2023/09/02 12:00:50;;;;;;;1.58;0.60;;;40.30;66.50;;;;;;7291821;19;20184;-77
2023/09/02 12:03:27;;;;;;;2.83;0.50;;;41.00;65.40;;;;;;7295743;19;20272;-77
2023/09/02 12:05:57;;;;;;;2.00;0.47;;;40.20;65.30;;;;;;7252913;19;20192;-77
2023/09/02 12:08:23;;;;;;;1.83;0.50;;;39.40;65.50;;;;;;7277678;19;20328;-77
2023/09/02 12:10:49;;;;;;;4.05;0.60;;;39.50;63.70;;;;;;7298510;19;20339;-77
2023/09/02 12:13:16;;;;;;;2.63;0.50;;;39.30;65.80;;;;;;7276771;19;20244;-77
2023/09/02 12:15:46;;;;;;;1.00;0.60;;;39.70;63.30;;;;;;7278125;19;20664;-78
2023/09/02 12:18:12;;;;;;;1.60;0.50;;;40.10;63.00;;;;;;7277783;19;20185;-77
2023/09/02 12:20:39;;;;;;;1.55;0.45;;;40.00;63.20;;;;;;7280080;19;20193;-78
2023/09/02 12:23:05;;;;;;;2.00;0.50;;;40.10;63.80;;;;;;7283639;19;20286;-77
2023/09/02 12:25:33;;;;;;;1.85;0.50;;;40.70;63.20;;;;;;7284657;19;20559;-77
2023/09/02 12:28:09;;;;;;;2.58;0.60;;;41.00;60.60;;;;;;7285332;19;20334;-80
2023/09/02 12:30:36;;;;;;;1.35;0.45;;;41.40;61.20;;;;;;7284962;19;20185;-77
2023/09/02 12:33:03;;;;;;;3.10;0.40;;;41.20;60.20;;;;;;7282522;19;20554;-77
2023/09/02 12:35:29;;;;;;;3.22;0.52;;;40.70;60.20;;;;;;7284275;19;20194;-79
2023/09/02 12:38:05;;;;;;;2.13;0.70;;;39.60;66.40;;;;;;7283361;19;20181;-77
2023/09/02 12:40:32;;;;;;;4.85;0.80;;;38.00;66.80;;;;;;7284662;19;20189;-76
2023/09/02 12:42:58;;;;;;;4.22;0.73;;;35.50;72.30;;;;;;7278497;19;20188;-77
2023/09/02 12:45:28;;;;;;;2.25;0.77;;;34.20;79.20;;;;;;7281796;19;20184;-76
2023/09/02 12:47:56;;;;;;;3.75;0.90;;;32.60;86.40;;;;;;7282851;19;20714;-77
2023/09/02 12:50:22;;;;;;;2.53;1.00;;;32.10;92.80;;;;;;7282440;19;20181;-77